sensor_id;sensor_type;location;lat;lon;timestamp;temperature;humidity
12049;DHT22;6085;49.452;8.502;2023-03-01T00:03:14;-0.60;99.90
12049;DHT22;6085;49.452;8.502;2023-03-01T00:07:15;-0.60;99.90
12049;DHT22;6085;49.452;8.502;2023-03-01T00:11:21;-0.60;99.90
12049;DHT22;6085;49.452;8.502;2023-03-01T00:15:23;-0.60;99.90
12049;DHT22;6085;49.452;8.502;2023-03-01T00:19:25;-0.60;99.90
12049;DHT22;6085;49.452;8.502;2023-03-01T00:23:27;-0.70;99.90
12049;DHT22;6085;49.452;8.502;2023-03-01T00:27:31;-0.80;99.90
12049;DHT22;6085;49.452;8.502;2023-03-01T00:31:33;-1.10;99.90
12049;DHT22;6085;49.452;8.502;2023-03-01T00:35:35;-1.30;99.90
12049;DHT22;6085;49.452;8.502;2023-03-01T00:39:37;-1.30;99.90
12049;DHT22;6085;49.452;8.502;2023-03-01T00:43:40;-1.40;99.90
12049;DHT22;6085;49.452;8.502;2023-03-01T00:47:42;-1.30;99.90
12049;DHT22;6085;49.452;8.502;2023-03-01T00:51:44;-1.30;99.90
12049;DHT22;6085;49.452;8.502;2023-03-01T00:55:46;-1.30;99.90
12049;DHT22;6085;49.452;8.502;2023-03-01T00:59:49;-1.40;99.90
12049;DHT22;6085;49.452;8.502;2023-03-01T01:03:54;-1.50;99.90
12049;DHT22;6085;49.452;8.502;2023-03-01T01:07:56;-1.40;99.90
12049;DHT22;6085;49.452;8.502;2023-03-01T01:11:58;-1.50;99.90
12049;DHT22;6085;49.452;8.502;2023-03-01T01:16:02;-1.50;99.90
12049;DHT22;6085;49.452;8.502;2023-03-01T01:20:05;-1.60;99.90
12049;DHT22;6085;49.452;8.502;2023-03-01T01:24:08;-1.50;99.90
12049;DHT22;6085;49.452;8.502;2023-03-01T01:28:10;-1.20;99.90
12049;DHT22;6085;49.452;8.502;2023-03-01T01:32:13;-1.00;99.90
12049;DHT22;6085;49.452;8.502;2023-03-01T01:36:16;-1.00;99.90
12049;DHT22;6085;49.452;8.502;2023-03-01T01:40:18;-1.00;99.90
12049;DHT22;6085;49.452;8.502;2023-03-01T01:44:21;-1.20;99.90
12049;DHT22;6085;49.452;8.502;2023-03-01T01:48:30;-1.20;99.90
12049;DHT22;6085;49.452;8.502;2023-03-01T01:52:40;-1.30;99.90
12049;DHT22;6085;49.452;8.502;2023-03-01T01:56:46;-1.20;99.90
12049;DHT22;6085;49.452;8.502;2023-03-01T02:00:49;-1.30;99.90
12049;DHT22;6085;49.452;8.502;2023-03-01T02:04:58;-1.40;99.90
12049;DHT22;6085;49.452;8.502;2023-03-01T02:09:10;-1.70;99.90
12049;DHT22;6085;49.452;8.502;2023-03-01T02:13:13;-1.80;99.90
12049;DHT22;6085;49.452;8.502;2023-03-01T02:17:16;-1.80;99.90
12049;DHT22;6085;49.452;8.502;2023-03-01T02:21:30;-1.80;99.90
12049;DHT22;6085;49.452;8.502;2023-03-01T02:25:38;-1.90;99.90
12049;DHT22;6085;49.452;8.502;2023-03-01T02:29:45;-2.00;99.90
12049;DHT22;6085;49.452;8.502;2023-03-01T02:33:47;-2.00;99.90
12049;DHT22;6085;49.452;8.502;2023-03-01T02:37:50;-1.90;99.90
12049;DHT22;6085;49.452;8.502;2023-03-01T02:41:53;-1.90;99.90
12049;DHT22;6085;49.452;8.502;2023-03-01T02:45:58;-2.00;99.90
12049;DHT22;6085;49.452;8.502;2023-03-01T02:50:00;-2.00;99.90
12049;DHT22;6085;49.452;8.502;2023-03-01T02:54:11;-2.00;99.90
12049;DHT22;6085;49.452;8.502;2023-03-01T02:58:14;-2.00;99.90
12049;DHT22;6085;49.452;8.502;2023-03-01T03:02:22;-1.90;99.90
12049;DHT22;6085;49.452;8.502;2023-03-01T03:06:36;-1.80;99.90
12049;DHT22;6085;49.452;8.502;2023-03-01T03:10:40;-1.80;99.90
12049;DHT22;6085;49.452;8.502;2023-03-01T03:14:43;-1.70;99.90
12049;DHT22;6085;49.452;8.502;2023-03-01T03:18:46;-1.50;99.90
12049;DHT22;6085;49.452;8.502;2023-03-01T03:22:51;-1.20;99.90
12049;DHT22;6085;49.452;8.502;2023-03-01T03:26:53;-1.10;99.90
12049;DHT22;6085;49.452;8.502;2023-03-01T03:30:55;-1.20;99.90
12049;DHT22;6085;49.452;8.502;2023-03-01T03:34:58;-1.20;99.90
12049;DHT22;6085;49.452;8.502;2023-03-01T03:39:00;-1.30;99.90
12049;DHT22;6085;49.452;8.502;2023-03-01T03:43:01;-1.30;99.90
12049;DHT22;6085;49.452;8.502;2023-03-01T03:47:03;-1.30;99.90
12049;DHT22;6085;49.452;8.502;2023-03-01T03:51:09;-1.40;99.90
12049;DHT22;6085;49.452;8.502;2023-03-01T03:55:12;-1.60;99.90
12049;DHT22;6085;49.452;8.502;2023-03-01T03:59:14;-1.70;99.90
12049;DHT22;6085;49.452;8.502;2023-03-01T04:03:17;-1.90;99.90
12049;DHT22;6085;49.452;8.502;2023-03-01T04:07:21;-2.00;99.90
12049;DHT22;6085;49.452;8.502;2023-03-01T04:11:23;-2.10;99.90
12049;DHT22;6085;49.452;8.502;2023-03-01T04:15:29;-2.20;99.90
12049;DHT22;6085;49.452;8.502;2023-03-01T04:19:32;-2.30;99.90
12049;DHT22;6085;49.452;8.502;2023-03-01T04:23:38;-2.30;99.90
12049;DHT22;6085;49.452;8.502;2023-03-01T04:27:41;-2.40;99.90
12049;DHT22;6085;49.452;8.502;2023-03-01T04:31:42;-2.50;99.90
12049;DHT22;6085;49.452;8.502;2023-03-01T04:35:44;-2.50;99.90
12049;DHT22;6085;49.452;8.502;2023-03-01T04:39:51;-2.50;99.90
12049;DHT22;6085;49.452;8.502;2023-03-01T04:43:52;-2.40;99.90
12049;DHT22;6085;49.452;8.502;2023-03-01T04:47:54;-2.40;99.90
12049;DHT22;6085;49.452;8.502;2023-03-01T04:51:58;-2.30;99.90
12049;DHT22;6085;49.452;8.502;2023-03-01T04:56:04;-2.40;99.90
12049;DHT22;6085;49.452;8.502;2023-03-01T05:00:09;-2.40;99.90
12049;DHT22;6085;49.452;8.502;2023-03-01T05:04:21;-2.50;99.90
12049;DHT22;6085;49.452;8.502;2023-03-01T05:08:23;-2.50;99.90
12049;DHT22;6085;49.452;8.502;2023-03-01T05:12:26;-2.40;99.90
12049;DHT22;6085;49.452;8.502;2023-03-01T05:16:28;-2.30;99.90
12049;DHT22;6085;49.452;8.502;2023-03-01T05:20:31;-2.20;99.90
12049;DHT22;6085;49.452;8.502;2023-03-01T05:24:34;-2.10;99.90
12049;DHT22;6085;49.452;8.502;2023-03-01T05:28:38;-2.00;99.90
12049;DHT22;6085;49.452;8.502;2023-03-01T05:32:41;-1.80;99.90
12049;DHT22;6085;49.452;8.502;2023-03-01T05:36:44;-1.60;99.90
12049;DHT22;6085;49.452;8.502;2023-03-01T05:40:48;-1.60;99.90
12049;DHT22;6085;49.452;8.502;2023-03-01T05:44:53;-1.40;99.90
12049;DHT22;6085;49.452;8.502;2023-03-01T05:48:56;-1.30;99.90
12049;DHT22;6085;49.452;8.502;2023-03-01T05:53:01;-1.40;99.90
12049;DHT22;6085;49.452;8.502;2023-03-01T05:57:04;-1.60;99.90
12049;DHT22;6085;49.452;8.502;2023-03-01T06:01:11;-1.70;99.90
12049;DHT22;6085;49.452;8.502;2023-03-01T06:05:14;-1.80;99.90
12049;DHT22;6085;49.452;8.502;2023-03-01T06:09:16;-1.80;99.90
12049;DHT22;6085;49.452;8.502;2023-03-01T06:13:17;-1.80;99.90
12049;DHT22;6085;49.452;8.502;2023-03-01T06:17:20;-1.80;99.90
12049;DHT22;6085;49.452;8.502;2023-03-01T06:21:22;-1.80;99.90
12049;DHT22;6085;49.452;8.502;2023-03-01T06:25:26;-1.80;99.90
12049;DHT22;6085;49.452;8.502;2023-03-01T06:29:28;-1.50;99.90
12049;DHT22;6085;49.452;8.502;2023-03-01T06:33:31;-1.20;99.90
12049;DHT22;6085;49.452;8.502;2023-03-01T06:37:33;-0.90;99.90
12049;DHT22;6085;49.452;8.502;2023-03-01T06:41:35;-0.60;99.90
12049;DHT22;6085;49.452;8.502;2023-03-01T06:45:37;-0.40;99.90
12049;DHT22;6085;49.452;8.502;2023-03-01T06:49:41;-0.20;99.90
12049;DHT22;6085;49.452;8.502;2023-03-01T06:53:43;0.10;99.90
12049;DHT22;6085;49.452;8.502;2023-03-01T06:57:44;0.30;99.90
12049;DHT22;6085;49.452;8.502;2023-03-01T07:01:46;0.50;99.90
12049;DHT22;6085;49.452;8.502;2023-03-01T07:05:50;0.70;99.90
12049;DHT22;6085;49.452;8.502;2023-03-01T07:09:53;0.90;99.90
12049;DHT22;6085;49.452;8.502;2023-03-01T07:13:54;1.30;99.90
12049;DHT22;6085;49.452;8.502;2023-03-01T07:17:57;1.90;99.90
12049;DHT22;6085;49.452;8.502;2023-03-01T07:22:04;2.40;99.90
12049;DHT22;6085;49.452;8.502;2023-03-01T07:26:08;2.80;99.90
12049;DHT22;6085;49.452;8.502;2023-03-01T07:30:13;2.80;99.90
12049;DHT22;6085;49.452;8.502;2023-03-01T07:34:15;2.60;99.90
12049;DHT22;6085;49.452;8.502;2023-03-01T07:38:18;2.80;99.90
12049;DHT22;6085;49.452;8.502;2023-03-01T07:42:20;3.20;99.90
12049;DHT22;6085;49.452;8.502;2023-03-01T07:46:22;3.80;99.90
12049;DHT22;6085;49.452;8.502;2023-03-01T07:50:24;4.20;99.90
12049;DHT22;6085;49.452;8.502;2023-03-01T07:54:27;4.10;99.90
12049;DHT22;6085;49.452;8.502;2023-03-01T07:58:33;3.70;99.90
12049;DHT22;6085;49.452;8.502;2023-03-01T08:02:35;3.40;99.90
12049;DHT22;6085;49.452;8.502;2023-03-01T08:06:37;3.30;99.90
12049;DHT22;6085;49.452;8.502;2023-03-01T08:10:40;3.20;99.90
12049;DHT22;6085;49.452;8.502;2023-03-01T08:14:43;3.20;99.90
12049;DHT22;6085;49.452;8.502;2023-03-01T08:18:44;3.20;99.90
12049;DHT22;6085;49.452;8.502;2023-03-01T08:22:46;4.60;99.90
12049;DHT22;6085;49.452;8.502;2023-03-01T08:26:49;6.90;99.90
12049;DHT22;6085;49.452;8.502;2023-03-01T08:30:51;8.80;99.90
12049;DHT22;6085;49.452;8.502;2023-03-01T08:34:53;9.80;99.90
12049;DHT22;6085;49.452;8.502;2023-03-01T08:38:55;11.10;96.30
12049;DHT22;6085;49.452;8.502;2023-03-01T08:42:59;11.70;93.80
12049;DHT22;6085;49.452;8.502;2023-03-01T08:47:01;11.80;91.40
12049;DHT22;6085;49.452;8.502;2023-03-01T08:51:09;12.00;90.40
12049;DHT22;6085;49.452;8.502;2023-03-01T08:55:11;12.40;88.60
12049;DHT22;6085;49.452;8.502;2023-03-01T08:59:16;12.90;84.60
12049;DHT22;6085;49.452;8.502;2023-03-01T09:03:18;13.20;81.60
12049;DHT22;6085;49.452;8.502;2023-03-01T09:07:20;13.50;77.80
12049;DHT22;6085;49.452;8.502;2023-03-01T09:11:22;13.70;75.40
12049;DHT22;6085;49.452;8.502;2023-03-01T09:15:25;14.40;72.60
12049;DHT22;6085;49.452;8.502;2023-03-01T09:19:27;14.20;71.60
12049;DHT22;6085;49.452;8.502;2023-03-01T09:23:29;14.60;68.90
12049;DHT22;6085;49.452;8.502;2023-03-01T09:27:31;15.50;66.70
12049;DHT22;6085;49.452;8.502;2023-03-01T09:31:34;16.00;65.00
12049;DHT22;6085;49.452;8.502;2023-03-01T09:35:36;15.80;61.50
12049;DHT22;6085;49.452;8.502;2023-03-01T09:39:37;14.20;64.40
12049;DHT22;6085;49.452;8.502;2023-03-01T09:43:44;13.20;66.80
12049;DHT22;6085;49.452;8.502;2023-03-01T09:47:48;14.40;65.00
12049;DHT22;6085;49.452;8.502;2023-03-01T09:51:56;14.00;65.80
12049;DHT22;6085;49.452;8.502;2023-03-01T09:56:01;14.20;64.50
12049;DHT22;6085;49.452;8.502;2023-03-01T10:00:16;14.00;64.70
12049;DHT22;6085;49.452;8.502;2023-03-01T10:04:28;13.30;66.20
12049;DHT22;6085;49.452;8.502;2023-03-01T10:08:37;13.90;64.70
12049;DHT22;6085;49.452;8.502;2023-03-01T10:12:41;13.60;64.70
12049;DHT22;6085;49.452;8.502;2023-03-01T10:16:50;14.10;64.40
12049;DHT22;6085;49.452;8.502;2023-03-01T10:20:57;15.50;62.00
12049;DHT22;6085;49.452;8.502;2023-03-01T10:25:02;14.90;61.10
12049;DHT22;6085;49.452;8.502;2023-03-01T10:29:06;13.90;62.50
12049;DHT22;6085;49.452;8.502;2023-03-01T10:33:16;12.10;66.20
12049;DHT22;6085;49.452;8.502;2023-03-01T10:37:21;11.50;69.20
12049;DHT22;6085;49.452;8.502;2023-03-01T10:41:26;11.90;68.00
12049;DHT22;6085;49.452;8.502;2023-03-01T10:45:33;12.20;67.90
12049;DHT22;6085;49.452;8.502;2023-03-01T10:49:36;12.80;67.00
12049;DHT22;6085;49.452;8.502;2023-03-01T10:53:41;13.20;66.30
12049;DHT22;6085;49.452;8.502;2023-03-01T10:57:44;12.80;66.00
12049;DHT22;6085;49.452;8.502;2023-03-01T11:01:45;12.40;67.20
12049;DHT22;6085;49.452;8.502;2023-03-01T11:05:59;13.00;65.10
12049;DHT22;6085;49.452;8.502;2023-03-01T11:10:11;12.00;68.20
12049;DHT22;6085;49.452;8.502;2023-03-01T11:14:16;12.50;67.40
12049;DHT22;6085;49.452;8.502;2023-03-01T11:18:20;13.30;65.60
12049;DHT22;6085;49.452;8.502;2023-03-01T11:22:23;13.00;66.00
12049;DHT22;6085;49.452;8.502;2023-03-01T11:26:28;12.90;66.70
12049;DHT22;6085;49.452;8.502;2023-03-01T11:30:33;12.50;66.40
12049;DHT22;6085;49.452;8.502;2023-03-01T11:34:43;13.00;66.90
12049;DHT22;6085;49.452;8.502;2023-03-01T11:38:46;13.10;65.70
12049;DHT22;6085;49.452;8.502;2023-03-01T11:42:59;12.60;67.30
12049;DHT22;6085;49.452;8.502;2023-03-01T11:47:18;12.90;65.60
12049;DHT22;6085;49.452;8.502;2023-03-01T11:51:37;12.00;67.80
12049;DHT22;6085;49.452;8.502;2023-03-01T11:55:50;12.00;68.70
12049;DHT22;6085;49.452;8.502;2023-03-01T12:00:30;12.60;67.70
12049;DHT22;6085;49.452;8.502;2023-03-01T12:04:54;13.20;66.30
12049;DHT22;6085;49.452;8.502;2023-03-01T12:09:11;11.90;68.60
12049;DHT22;6085;49.452;8.502;2023-03-01T12:13:27;12.00;69.60
12049;DHT22;6085;49.452;8.502;2023-03-01T12:17:51;11.80;70.00
12049;DHT22;6085;49.452;8.502;2023-03-01T12:22:17;12.10;69.50
12049;DHT22;6085;49.452;8.502;2023-03-01T12:26:27;12.50;68.50
12049;DHT22;6085;49.452;8.502;2023-03-01T12:30:39;11.80;69.80
12049;DHT22;6085;49.452;8.502;2023-03-01T12:35:03;11.60;70.40
12049;DHT22;6085;49.452;8.502;2023-03-01T12:39:17;11.30;71.50
12049;DHT22;6085;49.452;8.502;2023-03-01T12:43:31;11.30;71.20
12049;DHT22;6085;49.452;8.502;2023-03-01T12:47:52;10.90;73.40
12049;DHT22;6085;49.452;8.502;2023-03-01T12:52:01;10.80;72.80
12049;DHT22;6085;49.452;8.502;2023-03-01T12:56:06;11.10;72.60
12049;DHT22;6085;49.452;8.502;2023-03-01T13:00:24;11.10;74.00
12049;DHT22;6085;49.452;8.502;2023-03-01T13:04:35;11.20;73.00
12049;DHT22;6085;49.452;8.502;2023-03-01T13:08:46;11.30;74.40
12049;DHT22;6085;49.452;8.502;2023-03-01T13:13:01;11.80;72.50
12049;DHT22;6085;49.452;8.502;2023-03-01T13:17:04;12.20;71.40
12049;DHT22;6085;49.452;8.502;2023-03-01T13:21:06;12.30;70.20
12049;DHT22;6085;49.452;8.502;2023-03-01T13:25:16;12.40;70.50
12049;DHT22;6085;49.452;8.502;2023-03-01T13:29:26;12.40;70.00
12049;DHT22;6085;49.452;8.502;2023-03-01T13:33:40;12.40;69.70
12049;DHT22;6085;49.452;8.502;2023-03-01T13:37:43;12.10;70.40
12049;DHT22;6085;49.452;8.502;2023-03-01T13:41:51;12.30;70.30
12049;DHT22;6085;49.452;8.502;2023-03-01T13:45:54;12.90;68.60
12049;DHT22;6085;49.452;8.502;2023-03-01T13:49:58;13.10;68.10
12049;DHT22;6085;49.452;8.502;2023-03-01T13:54:00;13.20;67.80
12049;DHT22;6085;49.452;8.502;2023-03-01T13:58:13;13.20;67.40
12049;DHT22;6085;49.452;8.502;2023-03-01T14:02:16;12.90;68.10
12049;DHT22;6085;49.452;8.502;2023-03-01T14:06:21;12.50;68.60
12049;DHT22;6085;49.452;8.502;2023-03-01T14:10:27;12.40;68.70
12049;DHT22;6085;49.452;8.502;2023-03-01T14:14:48;12.10;69.60
12049;DHT22;6085;49.452;8.502;2023-03-01T14:19:00;11.60;70.70
12049;DHT22;6085;49.452;8.502;2023-03-01T14:23:11;11.20;71.70
12049;DHT22;6085;49.452;8.502;2023-03-01T14:27:13;11.00;71.90
12049;DHT22;6085;49.452;8.502;2023-03-01T14:31:41;11.00;72.30
12049;DHT22;6085;49.452;8.502;2023-03-01T14:35:52;11.20;72.20
12049;DHT22;6085;49.452;8.502;2023-03-01T14:39:56;11.60;71.60
12049;DHT22;6085;49.452;8.502;2023-03-01T14:44:00;11.60;72.00
12049;DHT22;6085;49.452;8.502;2023-03-01T14:48:06;11.60;71.30
12049;DHT22;6085;49.452;8.502;2023-03-01T14:52:18;11.40;71.90
12049;DHT22;6085;49.452;8.502;2023-03-01T14:56:21;11.40;72.90
12049;DHT22;6085;49.452;8.502;2023-03-01T15:00:24;11.70;72.00
12049;DHT22;6085;49.452;8.502;2023-03-01T15:04:28;11.60;71.60
12049;DHT22;6085;49.452;8.502;2023-03-01T15:08:32;11.50;72.20
12049;DHT22;6085;49.452;8.502;2023-03-01T15:12:37;11.60;72.10
12049;DHT22;6085;49.452;8.502;2023-03-01T15:16:39;11.50;72.20
12049;DHT22;6085;49.452;8.502;2023-03-01T15:20:43;11.60;71.40
12049;DHT22;6085;49.452;8.502;2023-03-01T15:24:49;11.60;72.00
12049;DHT22;6085;49.452;8.502;2023-03-01T15:28:52;11.50;72.30
12049;DHT22;6085;49.452;8.502;2023-03-01T15:33:28;11.40;71.60
12049;DHT22;6085;49.452;8.502;2023-03-01T15:37:43;11.20;73.00
12049;DHT22;6085;49.452;8.502;2023-03-01T15:41:48;11.00;73.60
12049;DHT22;6085;49.452;8.502;2023-03-01T15:45:56;10.80;74.30
12049;DHT22;6085;49.452;8.502;2023-03-01T15:50:02;10.40;74.70
12049;DHT22;6085;49.452;8.502;2023-03-01T15:54:11;9.90;77.20
12049;DHT22;6085;49.452;8.502;2023-03-01T15:58:17;9.50;78.80
12049;DHT22;6085;49.452;8.502;2023-03-01T16:02:22;9.30;79.10
12049;DHT22;6085;49.452;8.502;2023-03-01T16:06:25;9.10;80.20
12049;DHT22;6085;49.452;8.502;2023-03-01T16:10:29;8.90;80.90
12049;DHT22;6085;49.452;8.502;2023-03-01T16:14:31;8.70;81.70
12049;DHT22;6085;49.452;8.502;2023-03-01T16:18:33;8.50;82.70
12049;DHT22;6085;49.452;8.502;2023-03-01T16:22:36;8.30;83.80
12049;DHT22;6085;49.452;8.502;2023-03-01T16:26:40;8.10;84.60
12049;DHT22;6085;49.452;8.502;2023-03-01T16:30:46;8.00;85.40
12049;DHT22;6085;49.452;8.502;2023-03-01T16:34:48;7.90;86.40
12049;DHT22;6085;49.452;8.502;2023-03-01T16:38:51;7.70;87.70
12049;DHT22;6085;49.452;8.502;2023-03-01T16:42:55;7.50;88.80
12049;DHT22;6085;49.452;8.502;2023-03-01T16:46:59;7.20;90.20
12049;DHT22;6085;49.452;8.502;2023-03-01T16:51:02;7.00;91.40
12049;DHT22;6085;49.452;8.502;2023-03-01T16:55:06;6.90;91.80
12049;DHT22;6085;49.452;8.502;2023-03-01T16:59:11;6.70;92.40
12049;DHT22;6085;49.452;8.502;2023-03-01T17:03:13;6.40;93.00
12049;DHT22;6085;49.452;8.502;2023-03-01T17:07:17;6.00;94.10
12049;DHT22;6085;49.452;8.502;2023-03-01T17:11:20;5.70;95.30
12049;DHT22;6085;49.452;8.502;2023-03-01T17:15:23;5.50;96.80
12049;DHT22;6085;49.452;8.502;2023-03-01T17:19:25;5.30;98.30
12049;DHT22;6085;49.452;8.502;2023-03-01T17:23:28;5.20;99.70
12049;DHT22;6085;49.452;8.502;2023-03-01T17:27:30;5.10;99.90
12049;DHT22;6085;49.452;8.502;2023-03-01T17:31:36;5.00;99.90
12049;DHT22;6085;49.452;8.502;2023-03-01T17:35:38;4.70;99.90
12049;DHT22;6085;49.452;8.502;2023-03-01T17:39:39;4.50;99.90
12049;DHT22;6085;49.452;8.502;2023-03-01T17:43:41;4.30;99.90
12049;DHT22;6085;49.452;8.502;2023-03-01T17:47:44;4.20;99.90
12049;DHT22;6085;49.452;8.502;2023-03-01T17:51:46;4.10;99.90
12049;DHT22;6085;49.452;8.502;2023-03-01T17:55:48;4.00;99.90
12049;DHT22;6085;49.452;8.502;2023-03-01T17:59:53;3.90;99.90
12049;DHT22;6085;49.452;8.502;2023-03-01T18:03:56;4.00;99.90
12049;DHT22;6085;49.452;8.502;2023-03-01T18:07:58;4.10;99.90
12049;DHT22;6085;49.452;8.502;2023-03-01T18:12:00;4.10;99.90
12049;DHT22;6085;49.452;8.502;2023-03-01T18:16:04;4.20;99.90
12049;DHT22;6085;49.452;8.502;2023-03-01T18:20:09;4.30;99.90
12049;DHT22;6085;49.452;8.502;2023-03-01T18:24:12;4.30;99.90
12049;DHT22;6085;49.452;8.502;2023-03-01T18:28:14;4.20;99.90
12049;DHT22;6085;49.452;8.502;2023-03-01T18:32:16;4.10;99.90
12049;DHT22;6085;49.452;8.502;2023-03-01T18:36:22;4.00;99.90
12049;DHT22;6085;49.452;8.502;2023-03-01T18:40:24;3.90;99.90
12049;DHT22;6085;49.452;8.502;2023-03-01T18:44:26;3.90;99.90
12049;DHT22;6085;49.452;8.502;2023-03-01T18:48:28;3.80;99.90
12049;DHT22;6085;49.452;8.502;2023-03-01T18:52:31;3.70;99.90
12049;DHT22;6085;49.452;8.502;2023-03-01T18:56:33;3.60;99.90
12049;DHT22;6085;49.452;8.502;2023-03-01T19:00:35;3.50;99.90
12049;DHT22;6085;49.452;8.502;2023-03-01T19:04:37;3.50;99.90
12049;DHT22;6085;49.452;8.502;2023-03-01T19:08:41;3.40;99.90
12049;DHT22;6085;49.452;8.502;2023-03-01T19:12:43;3.30;99.90
12049;DHT22;6085;49.452;8.502;2023-03-01T19:16:45;3.30;99.90
12049;DHT22;6085;49.452;8.502;2023-03-01T19:20:47;3.30;99.90
12049;DHT22;6085;49.452;8.502;2023-03-01T19:24:50;3.20;99.90
12049;DHT22;6085;49.452;8.502;2023-03-01T19:28:53;3.20;99.90
12049;DHT22;6085;49.452;8.502;2023-03-01T19:32:55;3.20;99.90
12049;DHT22;6085;49.452;8.502;2023-03-01T19:36:57;3.20;99.90
12049;DHT22;6085;49.452;8.502;2023-03-01T19:41:03;3.20;99.90
12049;DHT22;6085;49.452;8.502;2023-03-01T19:45:06;3.10;99.90
12049;DHT22;6085;49.452;8.502;2023-03-01T19:49:08;3.00;99.90
12049;DHT22;6085;49.452;8.502;2023-03-01T19:53:10;3.00;99.90
12049;DHT22;6085;49.452;8.502;2023-03-01T19:57:13;2.90;99.90
12049;DHT22;6085;49.452;8.502;2023-03-01T20:01:17;2.90;99.90
12049;DHT22;6085;49.452;8.502;2023-03-01T20:05:19;2.90;99.90
12049;DHT22;6085;49.452;8.502;2023-03-01T20:09:21;2.80;99.90
12049;DHT22;6085;49.452;8.502;2023-03-01T20:13:24;2.80;99.90
12049;DHT22;6085;49.452;8.502;2023-03-01T20:17:26;2.70;99.90
12049;DHT22;6085;49.452;8.502;2023-03-01T20:21:28;2.70;99.90
12049;DHT22;6085;49.452;8.502;2023-03-01T20:25:30;2.60;99.90
12049;DHT22;6085;49.452;8.502;2023-03-01T20:29:33;2.50;99.90
12049;DHT22;6085;49.452;8.502;2023-03-01T20:33:35;2.50;99.90
12049;DHT22;6085;49.452;8.502;2023-03-01T20:37:37;2.40;99.90
12049;DHT22;6085;49.452;8.502;2023-03-01T20:41:39;2.40;99.90
12049;DHT22;6085;49.452;8.502;2023-03-01T20:45:42;2.40;99.90
12049;DHT22;6085;49.452;8.502;2023-03-01T20:49:44;2.30;99.90
12049;DHT22;6085;49.452;8.502;2023-03-01T20:53:46;2.30;99.90
12049;DHT22;6085;49.452;8.502;2023-03-01T20:57:48;2.30;99.90
12049;DHT22;6085;49.452;8.502;2023-03-01T21:01:51;2.30;99.90
12049;DHT22;6085;49.452;8.502;2023-03-01T21:05:54;2.10;99.90
12049;DHT22;6085;49.452;8.502;2023-03-01T21:09:56;2.00;99.90
12049;DHT22;6085;49.452;8.502;2023-03-01T21:13:58;1.80;99.90
12049;DHT22;6085;49.452;8.502;2023-03-01T21:18:02;1.70;99.90
12049;DHT22;6085;49.452;8.502;2023-03-01T21:22:04;1.60;99.90
12049;DHT22;6085;49.452;8.502;2023-03-01T21:26:07;1.70;99.90
12049;DHT22;6085;49.452;8.502;2023-03-01T21:30:11;1.60;99.90
12049;DHT22;6085;49.452;8.502;2023-03-01T21:34:14;1.60;99.90
12049;DHT22;6085;49.452;8.502;2023-03-01T21:38:16;1.50;99.90
12049;DHT22;6085;49.452;8.502;2023-03-01T21:42:18;1.60;99.90
12049;DHT22;6085;49.452;8.502;2023-03-01T21:46:21;1.50;99.90
12049;DHT22;6085;49.452;8.502;2023-03-01T21:50:25;1.40;99.90
12049;DHT22;6085;49.452;8.502;2023-03-01T21:54:27;1.40;99.90
12049;DHT22;6085;49.452;8.502;2023-03-01T21:58:29;1.30;99.90
12049;DHT22;6085;49.452;8.502;2023-03-01T22:02:31;1.30;99.90
12049;DHT22;6085;49.452;8.502;2023-03-01T22:06:35;1.30;99.90
12049;DHT22;6085;49.452;8.502;2023-03-01T22:10:39;1.30;99.90
12049;DHT22;6085;49.452;8.502;2023-03-01T22:14:43;1.20;99.90
12049;DHT22;6085;49.452;8.502;2023-03-01T22:18:45;1.10;99.90
12049;DHT22;6085;49.452;8.502;2023-03-01T22:22:48;1.10;99.90
12049;DHT22;6085;49.452;8.502;2023-03-01T22:26:51;1.00;99.90
12049;DHT22;6085;49.452;8.502;2023-03-01T22:30:54;1.00;99.90
12049;DHT22;6085;49.452;8.502;2023-03-01T22:34:55;0.90;99.90
12049;DHT22;6085;49.452;8.502;2023-03-01T22:38:58;0.80;99.90
12049;DHT22;6085;49.452;8.502;2023-03-01T22:43:01;0.80;99.90
12049;DHT22;6085;49.452;8.502;2023-03-01T22:47:03;0.70;99.90
12049;DHT22;6085;49.452;8.502;2023-03-01T22:51:05;0.70;99.90
12049;DHT22;6085;49.452;8.502;2023-03-01T22:55:09;0.70;99.90
12049;DHT22;6085;49.452;8.502;2023-03-01T22:59:13;0.70;99.90
12049;DHT22;6085;49.452;8.502;2023-03-01T23:03:15;0.60;99.90
12049;DHT22;6085;49.452;8.502;2023-03-01T23:07:16;0.70;99.90
12049;DHT22;6085;49.452;8.502;2023-03-01T23:11:21;0.60;99.90
12049;DHT22;6085;49.452;8.502;2023-03-01T23:15:23;0.50;99.90
12049;DHT22;6085;49.452;8.502;2023-03-01T23:19:24;0.50;99.90
12049;DHT22;6085;49.452;8.502;2023-03-01T23:23:26;0.60;99.90
12049;DHT22;6085;49.452;8.502;2023-03-01T23:27:30;0.60;99.90
12049;DHT22;6085;49.452;8.502;2023-03-01T23:31:31;0.50;99.90
12049;DHT22;6085;49.452;8.502;2023-03-01T23:35:37;0.40;99.90
12049;DHT22;6085;49.452;8.502;2023-03-01T23:39:39;0.40;99.90
12049;DHT22;6085;49.452;8.502;2023-03-01T23:43:44;0.60;99.90
12049;DHT22;6085;49.452;8.502;2023-03-01T23:47:46;0.70;99.90
12049;DHT22;6085;49.452;8.502;2023-03-01T23:51:48;0.80;99.90
12049;DHT22;6085;49.452;8.502;2023-03-01T23:55:52;0.90;99.90
12049;DHT22;6085;49.452;8.502;2023-03-01T23:59:56;0.90;99.90
